createdAt,value
2023-01-07T00:01:36.992Z,5.36
2023-01-07T00:04:45.582Z,5.27
2023-01-07T00:07:54.027Z,5.22
2023-01-07T00:11:08.010Z,5.19
2023-01-07T00:14:22.991Z,5.18
2023-01-07T00:17:24.896Z,5.14
2023-01-07T00:20:39.979Z,5.16
2023-01-07T00:23:50.000Z,5.04
2023-01-07T00:27:04.996Z,5.12
2023-01-07T00:30:13.881Z,5.14
2023-01-07T00:33:21.992Z,5.21
2023-01-07T00:36:39.121Z,5.29
2023-01-07T00:39:47.639Z,5.39
2023-01-07T00:43:01.991Z,5.47
2023-01-07T00:46:21.136Z,5.53
2023-01-07T00:49:35.987Z,5.62
2023-01-07T00:52:44.628Z,5.70
2023-01-07T00:55:59.004Z,5.75
2023-01-07T00:59:07.618Z,5.85
2023-01-07T01:02:22.009Z,5.90
2023-01-07T01:05:24.044Z,5.97
2023-01-07T01:08:39.975Z,6.00
2023-01-07T01:11:42.240Z,6.02
2023-01-07T01:14:56.997Z,6.01
2023-01-07T01:18:12.007Z,6.06
2023-01-07T01:21:15.779Z,6.05
2023-01-07T01:24:30.987Z,6.03
2023-01-07T01:27:38.976Z,5.99
2023-01-07T01:31:02.060Z,5.97
2023-01-07T01:34:04.070Z,5.95
2023-01-07T01:37:18.994Z,5.92
2023-01-07T01:40:20.896Z,5.89
2023-01-07T01:43:35.997Z,5.87
2023-01-07T01:46:58.016Z,5.83
2023-01-07T01:50:22.999Z,5.81
2023-01-07T01:53:37.981Z,5.79
2023-01-07T01:56:57.020Z,5.78
2023-01-07T01:59:59.522Z,5.74
2023-01-07T02:03:18.023Z,5.67
2023-01-07T02:06:35.981Z,5.69
2023-01-07T02:09:46.477Z,5.62
2023-01-07T02:13:19.977Z,5.56
2023-01-07T02:16:41.048Z,5.51
2023-01-07T02:19:48.977Z,5.43
2023-01-07T02:23:35.100Z,5.37
2023-01-07T02:27:37.989Z,5.28
2023-01-07T02:31:11.938Z,5.16
2023-01-07T02:34:27.001Z,5.08
2023-01-07T02:37:56.968Z,4.98
2023-01-07T02:41:44.991Z,4.90
2023-01-07T02:45:19.312Z,4.81
2023-01-07T02:48:43.004Z,4.80
2023-01-07T02:51:46.169Z,4.70
2023-01-07T02:55:19.013Z,4.64
2023-01-07T02:58:58.971Z,4.58
2023-01-07T03:02:10.357Z,4.55
2023-01-07T03:05:50.967Z,4.51
2023-01-07T03:09:24.994Z,4.45
2023-01-07T03:12:29.827Z,4.39
2023-01-07T03:15:53.967Z,4.37
2023-01-07T03:19:20.444Z,4.33
2023-01-07T03:22:37.977Z,4.27
2023-01-07T03:25:57.003Z,4.24
2023-01-07T03:29:14.988Z,4.17
2023-01-07T03:32:29.958Z,4.15
2023-01-07T03:35:42.432Z,4.10
2023-01-07T03:38:51.961Z,4.00
2023-01-07T03:42:06.992Z,3.98
2023-01-07T03:45:19.668Z,3.92
2023-01-07T03:48:40.998Z,3.91
2023-01-07T03:51:43.180Z,3.87
2023-01-07T03:54:58.070Z,3.57
2023-01-07T03:58:06.980Z,3.78
2023-01-07T04:01:22.084Z,3.72
2023-01-07T04:04:30.983Z,3.69
2023-01-07T04:07:39.586Z,3.66
2023-01-07T04:10:47.966Z,3.63
2023-01-07T04:13:56.581Z,3.59
2023-01-07T04:17:10.953Z,3.57
2023-01-07T04:20:12.915Z,3.59
2023-01-07T04:23:27.976Z,3.59
2023-01-07T04:26:29.891Z,3.58
2023-01-07T04:29:44.961Z,3.55
2023-01-07T04:32:53.027Z,3.55
2023-01-07T04:36:01.815Z,3.47
2023-01-07T04:39:16.980Z,3.46
2023-01-07T04:42:31.958Z,3.43
2023-01-07T04:45:40.531Z,3.35
2023-01-07T04:49:01.977Z,3.49
2023-01-07T04:52:04.490Z,3.48
2023-01-07T04:55:18.980Z,3.50
2023-01-07T04:58:21.338Z,3.45
2023-01-07T05:01:36.106Z,3.41
2023-01-07T05:04:44.707Z,3.34
2023-01-07T05:07:59.958Z,3.31
2023-01-07T05:11:02.030Z,3.28
2023-01-07T05:14:18.961Z,3.22
2023-01-07T05:17:34.018Z,3.20
2023-01-07T05:20:42.963Z,3.17
2023-01-07T05:23:51.580Z,3.07
2023-01-07T05:26:59.957Z,3.03
2023-01-07T05:30:15.953Z,3.00
2023-01-07T05:33:17.840Z,2.98
2023-01-07T05:36:32.975Z,2.94
2023-01-07T05:39:34.991Z,2.89
2023-01-07T05:42:49.979Z,2.88
2023-01-07T05:45:52.011Z,2.85
2023-01-07T05:49:14.007Z,2.81
2023-01-07T05:52:28.974Z,2.76
2023-01-07T05:55:43.954Z,2.69
2023-01-07T05:58:45.933Z,2.65
2023-01-07T06:02:00.973Z,2.62
2023-01-07T06:05:16.985Z,2.62
2023-01-07T06:08:24.965Z,2.63
2023-01-07T06:11:39.961Z,2.63
2023-01-07T06:14:55.001Z,2.60
2023-01-07T06:18:03.776Z,2.62
2023-01-07T06:21:18.948Z,2.68
2023-01-07T06:24:27.512Z,2.72
2023-01-07T06:27:41.948Z,2.75
2023-01-07T06:30:48.374Z,2.75
2023-01-07T06:34:02.956Z,2.77
2023-01-07T06:37:04.841Z,2.77
2023-01-07T06:40:19.956Z,2.75
2023-01-07T06:43:29.192Z,2.72
2023-01-07T06:46:38.047Z,2.71
2023-01-07T06:49:52.963Z,2.68
2023-01-07T06:53:00.955Z,2.64
2023-01-07T06:56:15.992Z,2.50
2023-01-07T06:59:23.948Z,2.64
2023-01-07T07:02:39.028Z,2.70
2023-01-07T07:05:47.629Z,2.70
2023-01-07T07:08:55.995Z,2.94
2023-01-07T07:12:05.262Z,2.95
2023-01-07T07:15:19.971Z,2.97
2023-01-07T07:18:28.609Z,2.97
2023-01-07T07:21:42.980Z,2.97
2023-01-07T07:24:57.985Z,2.98
2023-01-07T07:28:05.977Z,2.98
2023-01-07T07:31:14.635Z,2.96
2023-01-07T07:34:22.991Z,3.08
2023-01-07T07:37:31.618Z,3.10
2023-01-07T07:40:45.989Z,3.17
2023-01-07T07:44:00.954Z,3.27
2023-01-07T07:47:09.939Z,3.35
2023-01-07T07:50:18.648Z,3.47
2023-01-07T07:53:28.059Z,3.60
2023-01-07T07:56:42.980Z,3.71
2023-01-07T07:59:45.093Z,3.84
2023-01-07T08:03:04.979Z,3.97
2023-01-07T08:06:13.653Z,4.17
2023-01-07T08:09:21.963Z,4.34
2023-01-07T08:12:31.242Z,4.41
2023-01-07T08:15:45.951Z,4.43
2023-01-07T08:19:00.934Z,4.64
2023-01-07T08:22:09.583Z,4.79
2023-01-07T08:25:17.937Z,4.98
2023-01-07T08:28:32.993Z,5.12
2023-01-07T08:31:41.826Z,5.28
2023-01-07T08:34:50.025Z,5.46
2023-01-07T08:38:09.108Z,5.59
2023-01-07T08:41:17.960Z,5.71
2023-01-07T08:44:26.576Z,5.87
2023-01-07T08:47:47.961Z,5.99
2023-01-07T08:50:56.532Z,6.07
2023-01-07T08:54:11.941Z,6.19
2023-01-07T08:57:20.684Z,6.38
2023-01-07T09:00:36.002Z,6.59
2023-01-07T09:03:44.592Z,6.83
2023-01-07T09:06:53.110Z,7.11
2023-01-07T09:10:08.024Z,7.30
2023-01-07T09:13:16.967Z,7.48
2023-01-07T09:16:31.972Z,7.70
2023-01-07T09:19:46.950Z,7.88
2023-01-07T09:23:01.953Z,8.21
2023-01-07T09:26:10.543Z,8.37
2023-01-07T09:29:24.943Z,8.60
2023-01-07T09:32:39.952Z,8.87
2023-01-07T09:35:41.843Z,9.14
2023-01-07T09:38:56.948Z,9.49
2023-01-07T09:42:12.649Z,9.78
2023-01-07T09:45:31.978Z,10.02
2023-01-07T09:48:47.756Z,10.28
2023-01-07T09:52:25.992Z,10.42
2023-01-07T09:56:12.019Z,10.53
2023-01-07T09:59:11.951Z,10.75
2023-01-07T10:03:01.974Z,10.92
2023-01-07T10:06:16.526Z,10.99
2023-01-07T10:09:34.978Z,11.05
2023-01-07T10:13:11.456Z,11.09
2023-01-07T10:16:52.054Z,11.16
2023-01-07T10:20:31.753Z,11.28
2023-01-07T10:23:54.960Z,11.27
2023-01-07T10:27:18.942Z,11.55
2023-01-07T10:30:28.177Z,11.66
2023-01-07T10:33:42.976Z,11.48
2023-01-07T10:37:18.969Z,11.40
2023-01-07T10:40:50.946Z,11.55
2023-01-07T10:44:21.961Z,11.64
2023-01-07T10:47:49.533Z,11.52
2023-01-07T10:51:18.962Z,11.48
2023-01-07T10:55:02.695Z,11.54
2023-01-07T10:58:18.952Z,11.55
2023-01-07T11:01:34.060Z,11.52
2023-01-07T11:04:48.969Z,11.51
2023-01-07T11:08:05.971Z,11.48
2023-01-07T11:11:27.991Z,11.49
2023-01-07T11:14:41.521Z,11.48
2023-01-07T11:17:58.992Z,11.43
2023-01-07T11:21:42.940Z,11.44
2023-01-07T11:24:42.586Z,11.43
2023-01-07T11:27:56.973Z,11.38
2023-01-07T11:31:06.972Z,11.36
2023-01-07T11:34:27.793Z,11.34
2023-01-07T11:37:47.933Z,11.31
2023-01-07T11:41:00.690Z,11.29
2023-01-07T11:44:22.020Z,11.25
2023-01-07T11:47:30.609Z,11.11
2023-01-07T11:51:00.953Z,11.26
2023-01-07T11:54:21.129Z,11.22
2023-01-07T11:57:31.961Z,11.22
2023-01-07T12:00:40.666Z,11.23
2023-01-07T12:04:14.972Z,11.20
2023-01-07T12:07:23.691Z,11.19
2023-01-07T12:10:43.974Z,11.24
2023-01-07T12:13:52.110Z,11.25
2023-01-07T12:17:27.968Z,11.27
2023-01-07T12:21:20.987Z,11.25
2023-01-07T12:24:50.959Z,11.22
2023-01-07T12:27:55.733Z,11.20
2023-01-07T12:31:49.959Z,11.19
2023-01-07T12:35:14.319Z,11.19
2023-01-07T12:38:47.979Z,11.17
2023-01-07T12:42:09.968Z,11.29
2023-01-07T12:45:33.317Z,11.22
2023-01-07T12:49:21.448Z,11.22
2023-01-07T12:52:41.966Z,11.45
2023-01-07T12:56:03.040Z,11.43
2023-01-07T12:59:46.120Z,11.37
2023-01-07T13:03:24.926Z,11.33
2023-01-07T13:06:39.956Z,11.35
2023-01-07T13:09:53.880Z,11.31
2023-01-07T13:13:08.983Z,11.30
2023-01-07T13:16:17.715Z,11.31
2023-01-07T13:19:25.970Z,11.32
2023-01-07T13:22:39.855Z,11.34
2023-01-07T13:26:13.984Z,11.37
2023-01-07T13:29:21.604Z,11.31
2023-01-07T13:32:53.955Z,11.26
2023-01-07T13:36:20.979Z,11.23
2023-01-07T13:39:28.721Z,11.14
2023-01-07T13:42:53.950Z,11.06
2023-01-07T13:46:23.964Z,11.07
2023-01-07T13:49:39.436Z,11.05
2023-01-07T13:53:33.958Z,10.97
2023-01-07T13:56:44.934Z,11.00
2023-01-07T14:00:02.012Z,10.93
2023-01-07T14:03:34.157Z,10.79
2023-01-07T14:06:46.975Z,10.68
2023-01-07T14:10:14.485Z,10.57
2023-01-07T14:13:19.008Z,10.51
2023-01-07T14:16:52.948Z,10.45
2023-01-07T14:20:24.938Z,10.45
2023-01-07T14:23:52.681Z,10.30
2023-01-07T14:27:16.998Z,10.14
2023-01-07T14:30:34.106Z,9.98
2023-01-07T14:33:56.964Z,9.86
2023-01-07T14:37:14.578Z,9.76
2023-01-07T14:40:34.998Z,9.64
2023-01-07T14:43:49.937Z,9.58
2023-01-07T14:46:52.740Z,9.45
2023-01-07T14:50:39.039Z,9.32
2023-01-07T14:54:09.391Z,9.22
2023-01-07T14:58:00.956Z,9.12
2023-01-07T15:01:34.190Z,9.04
2023-01-07T15:05:02.384Z,8.98
2023-01-07T15:08:15.962Z,8.87
2023-01-07T15:11:26.247Z,8.80
2023-01-07T15:14:46.960Z,8.69
2023-01-07T15:17:56.258Z,8.66
2023-01-07T15:21:24.962Z,8.61
2023-01-07T15:25:22.737Z,8.55
2023-01-07T15:28:49.365Z,8.49
2023-01-07T15:32:21.962Z,8.38
2023-01-07T15:35:31.711Z,8.32
2023-01-07T15:38:53.957Z,8.25
2023-01-07T15:42:03.214Z,8.21
2023-01-07T15:45:11.974Z,8.11
2023-01-07T15:48:20.537Z,8.06
2023-01-07T15:51:46.977Z,7.95
2023-01-07T15:55:01.955Z,7.94
2023-01-07T15:58:24.425Z,7.87
2023-01-07T16:01:46.049Z,7.75
2023-01-07T16:05:04.035Z,7.68
2023-01-07T16:08:24.931Z,7.61
2023-01-07T16:11:33.613Z,7.52
2023-01-07T16:14:49.016Z,7.36
2023-01-07T16:18:10.475Z,7.24
2023-01-07T16:21:14.584Z,7.15
2023-01-07T16:24:28.958Z,7.04
2023-01-07T16:27:31.476Z,6.91
2023-01-07T16:30:49.045Z,6.77
2023-01-07T16:33:59.529Z,6.59
2023-01-07T16:37:21.947Z,6.52
2023-01-07T16:40:43.956Z,6.36
2023-01-07T16:43:45.958Z,6.01
2023-01-07T16:47:27.930Z,6.00
2023-01-07T16:50:51.568Z,5.94
2023-01-07T16:54:25.669Z,6.01
2023-01-07T16:57:45.966Z,5.93
2023-01-07T17:00:56.981Z,6.06
2023-01-07T17:04:26.969Z,6.05
2023-01-07T17:07:43.966Z,6.12
2023-01-07T17:11:02.572Z,6.18
2023-01-07T17:14:41.961Z,6.25
2023-01-07T17:17:50.891Z,6.20
2023-01-07T17:21:06.954Z,6.18
2023-01-07T17:24:49.932Z,6.24
2023-01-07T17:28:01.508Z,6.28
2023-01-07T17:31:10.993Z,6.24
2023-01-07T17:34:19.591Z,6.19
2023-01-07T17:37:27.929Z,6.15
2023-01-07T17:40:42.951Z,6.16
2023-01-07T17:43:44.780Z,6.19
2023-01-07T17:46:59.959Z,6.28
2023-01-07T17:50:09.014Z,6.31
2023-01-07T17:53:25.794Z,6.31
2023-01-07T17:56:40.943Z,6.36
2023-01-07T17:59:42.772Z,6.40
2023-01-07T18:02:59.015Z,6.36
2023-01-07T18:06:07.975Z,6.31
2023-01-07T18:09:22.967Z,6.23
2023-01-07T18:12:31.604Z,6.29
2023-01-07T18:15:40.189Z,6.35
2023-01-07T18:18:48.787Z,6.35
2023-01-07T18:22:03.933Z,6.37
2023-01-07T18:25:18.019Z,6.28
2023-01-07T18:28:32.965Z,6.30
2023-01-07T18:31:43.974Z,6.32
2023-01-07T18:34:58.944Z,6.35
2023-01-07T18:38:04.089Z,6.35
2023-01-07T18:41:18.958Z,6.37
2023-01-07T18:44:33.955Z,6.41
2023-01-07T18:47:42.541Z,6.42
2023-01-07T18:50:57.940Z,6.39
2023-01-07T18:54:06.770Z,6.40
2023-01-07T18:57:14.925Z,6.40
2023-01-07T19:00:29.950Z,6.37
2023-01-07T19:03:38.008Z,6.35
2023-01-07T19:06:52.963Z,6.35
2023-01-07T19:10:08.918Z,6.35
2023-01-07T19:13:11.105Z,6.39
2023-01-07T19:16:25.955Z,6.33
2023-01-07T19:19:32.035Z,6.33
2023-01-07T19:22:55.481Z,6.39
2023-01-07T19:26:13.972Z,6.33
2023-01-07T19:29:16.950Z,6.39
2023-01-07T19:32:31.953Z,6.37
2023-01-07T19:35:40.533Z,6.34
2023-01-07T19:38:53.098Z,6.36
2023-01-07T19:42:01.707Z,6.30
2023-01-07T19:45:17.941Z,6.39
2023-01-07T19:48:26.918Z,6.40
2023-01-07T19:51:43.619Z,6.36
2023-01-07T19:54:51.924Z,6.44
2023-01-07T19:58:00.582Z,6.47
2023-01-07T20:01:18.993Z,6.47
2023-01-07T20:04:34.598Z,6.47
2023-01-07T20:07:46.651Z,6.36
2023-01-07T20:11:02.934Z,6.47
2023-01-07T20:14:12.864Z,6.48
2023-01-07T20:17:27.949Z,6.49
2023-01-07T20:20:36.577Z,6.50
2023-01-07T20:23:51.016Z,6.50
2023-01-07T20:27:05.917Z,6.49
2023-01-07T20:30:15.434Z,6.47
2023-01-07T20:33:29.915Z,6.45
2023-01-07T20:36:32.328Z,6.46
2023-01-07T20:39:48.973Z,6.51
2023-01-07T20:42:51.099Z,6.49
2023-01-07T20:46:07.973Z,6.42
2023-01-07T20:49:29.924Z,6.49
2023-01-07T20:52:44.925Z,6.51
2023-01-07T20:56:04.027Z,6.51
2023-01-07T20:59:06.768Z,6.52
2023-01-07T21:02:24.181Z,6.50
2023-01-07T21:05:38.933Z,6.52
2023-01-07T21:08:56.952Z,6.54
2023-01-07T21:12:11.925Z,6.51
2023-01-07T21:15:17.281Z,6.48
2023-01-07T21:18:31.980Z,6.48
2023-01-07T21:21:53.947Z,6.50
2023-01-07T21:25:02.511Z,6.52
2023-01-07T21:28:16.948Z,6.51
2023-01-07T21:31:27.587Z,6.51
2023-01-07T21:34:42.939Z,6.53
2023-01-07T21:37:55.184Z,6.51
2023-01-07T21:41:04.439Z,6.44
2023-01-07T21:44:18.929Z,6.54
2023-01-07T21:47:27.642Z,6.54
2023-01-07T21:50:49.941Z,6.57
2023-01-07T21:53:58.843Z,6.57
2023-01-07T21:57:13.911Z,6.54
2023-01-07T22:00:22.576Z,6.54
2023-01-07T22:03:40.715Z,6.53
2023-01-07T22:06:48.940Z,6.54
2023-01-07T22:09:57.641Z,6.53
2023-01-07T22:13:05.937Z,6.53
2023-01-07T22:16:14.523Z,6.53
2023-01-07T22:19:28.912Z,6.54
2023-01-07T22:22:43.908Z,6.54
2023-01-07T22:25:45.806Z,6.49
2023-01-07T22:29:06.940Z,6.51
2023-01-07T22:32:14.911Z,6.49
2023-01-07T22:35:23.771Z,6.49
2023-01-07T22:38:39.917Z,6.52
2023-01-07T22:41:50.990Z,6.53
2023-01-07T22:45:10.945Z,6.55
2023-01-07T22:48:22.801Z,6.54
2023-01-07T22:51:49.904Z,6.52
2023-01-07T22:55:05.915Z,6.51
2023-01-07T22:58:08.257Z,6.49
2023-01-07T23:01:23.934Z,6.50
2023-01-07T23:04:32.715Z,6.52
2023-01-07T23:07:47.928Z,6.56
2023-01-07T23:10:56.527Z,6.57
2023-01-07T23:14:10.919Z,6.56
2023-01-07T23:17:19.518Z,6.56
2023-01-07T23:20:27.919Z,6.50
2023-01-07T23:23:42.926Z,6.54
2023-01-07T23:26:46.803Z,6.52
2023-01-07T23:30:01.974Z,6.43
2023-01-07T23:33:05.222Z,6.47
2023-01-07T23:36:19.924Z,6.52
2023-01-07T23:39:28.531Z,6.54
2023-01-07T23:42:37.926Z,6.57
2023-01-07T23:45:52.982Z,6.56
2023-01-07T23:49:01.921Z,6.58
2023-01-07T23:52:23.937Z,6.57
2023-01-07T23:55:25.857Z,6.50
2023-01-07T23:58:41.911Z,6.53
